BE4416 / G-FBJH 7700 Squawk Report (16th of January, 2018)

Aircraft E175 Reg No. G-FBJH Age N/A
Model Emb-175 Jet engines 2 First flight N/A
Registered 25-09-12 Rollout N/A Delivered 25-09-12
Construction No. 17000351 Line No. N/A Series 200LR
ADSHEX 406811 Airline name FlyBE Owner Aldus Aviation
Airfield based Exeter~Devon~G First tracked 2014-11-11 17:29:02
Time Lat Lon Altitude Heading Speed Vertical Rate
2018-01-16 17:51:17 GMT 53.39179 -0.22049 9,950 286 210 0
2018-01-16 17:50:55 GMT 53.38106 -0.19209 10,000 271 351 0
We lost coverage of the aircraft here for a total of 18 minutes
2018-01-16 17:33:10 GMT 52.93621 2.00226 36,000 114.9 202.9 0
We lost coverage of the aircraft here for a total of 12 minutes
2018-01-16 17:21:20 GMT 52.93078 2.43692 12,100 284 238 -1472
2018-01-16 17:21:12 GMT 52.92840 2.45097 12,300 284 238 -1536
2018-01-16 17:21:00 GMT 52.92440 2.47428 12,600 283 236 -1600
2018-01-16 17:20:46 GMT 52.92100 2.50324 13,050 283 240 -1664
2018-01-16 17:20:35 GMT 52.91928 2.51767 13,250 283 240 -1792
2018-01-16 17:20:25 GMT 52.91681 2.53376 13,525 283 239 -1792
2018-01-16 17:20:12 GMT 52.91360 2.56107 13,950 284 239 -1920
2018-01-16 17:20:05 GMT 52.91211 2.57119 14,125 284 241 -1984
2018-01-16 17:19:55 GMT 52.90899 2.59254 14,500 284 241 -2176
2018-01-16 17:19:42 GMT 52.90671 2.60870 14,800 284 241 -2240
2018-01-16 17:19:34 GMT 52.90508 2.62581 15,525 284 243 -2240
2018-01-16 17:19:25 GMT 52.90178 2.64056 15,475 284 243 -2304
2018-01-16 17:19:15 GMT 52.89861 2.66364 15,975 284 246 -2304
2018-01-16 17:19:04 GMT 52.89619 2.68011 15,850 284 246 -2304
2018-01-16 17:18:57 GMT 52.89479 2.68922 16,525 284 246 -2240
2018-01-16 17:18:44 GMT 52.89079 2.71802 17,100 284 248 -2304
2018-01-16 17:18:26 GMT 52.88641 2.74713 17,750 284 251 -2496
2018-01-16 17:18:18 GMT 52.88409 2.76377 18,125 284 252 -2432
2018-01-16 17:18:11 GMT 52.88260 2.77507 17,875 284 253 -2304
2018-01-16 17:18:09 GMT 52.88260 2.77507 17,875 284 253 -2304
2018-01-16 17:18:07 GMT 52.88060 2.79021 18,725 284 253 -2304
2018-01-16 17:17:57 GMT 52.87929 2.79908 18,900 284 255 -2368
2018-01-16 17:17:51 GMT 52.87771 2.80983 18,600 284 257 -2368
2018-01-16 17:17:47 GMT 52.87599 2.82050 19,375 285 259 -2432
2018-01-16 17:17:41 GMT 52.87398 2.83267 19,625 284 257 -2432
2018-01-16 17:17:31 GMT 52.87138 2.84946 19,975 284 258 -2496
2018-01-16 17:17:23 GMT 52.86900 2.86476 19,875 284 258 -2560
2018-01-16 17:17:18 GMT 52.86821 2.88046 21,225 284 257 -2688
2018-01-16 17:17:14 GMT 52.86598 2.88603 20,175 284 257 -2688
2018-01-16 17:17:05 GMT 52.86300 2.90698 20,625 284 257 -2752
2018-01-16 17:16:59 GMT 52.86221 2.91271 21,350 284 257 -2752
2018-01-16 17:16:54 GMT 52.86090 2.92221 21,000 284 257 -2752
2018-01-16 17:16:48 GMT 52.85848 2.93562 21,325 284 256 -2816
2018-01-16 17:16:40 GMT 52.85732 2.94559 21,625 284 254 -2880
2018-01-16 17:16:32 GMT 52.85359 2.96199 22,600 284 264 -3008
2018-01-16 17:16:23 GMT 52.85090 2.97863 22,375 283 266 -3008
2018-01-16 17:16:15 GMT 52.84899 2.98569 22,850 283 272 -2816
2018-01-16 17:16:04 GMT 52.84568 3.00766 23,375 283 282 -2368
2018-01-16 17:15:58 GMT 52.84480 3.01496 23,600 283 284 -2176
2018-01-16 17:15:50 GMT 52.84252 3.02720 24,125 283 295 -1920
2018-01-16 17:15:44 GMT 52.84089 3.03968 24,950 283 312 -1856
2018-01-16 17:15:35 GMT 52.83851 3.05812 24,800 284 318 -1728
2018-01-16 17:15:24 GMT 52.83642 3.07617 25,100 284 322 -1024
2018-01-16 17:15:19 GMT 52.83502 3.08582 25,350 284 321 -960
2018-01-16 17:15:13 GMT 52.83064 3.12820 25,600 284 322 -896
2018-01-16 17:14:58 GMT 52.82661 3.14568 26,025 285 322 -1152
2018-01-16 17:14:49 GMT 52.82562 3.15731 26,075 286 324 -1472
2018-01-16 17:14:44 GMT 52.81910 3.19788 26,500 286 325 -1920
2018-01-16 17:14:31 GMT 52.81780 3.20769 26,325 286 324 -1984
2018-01-16 17:14:21 GMT 52.81468 3.22668 26,550 287 324 -1856
2018-01-16 17:14:15 GMT 52.81221 3.24387 26,700 287 324 -1344
2018-01-16 17:14:02 GMT 52.80579 3.28068 27,000 287 318 -640
2018-01-16 17:13:51 GMT 52.79992 3.30908 27,475 286 312 -192
2018-01-16 17:13:43 GMT 52.79662 3.32792 27,775 286 310 -64
2018-01-16 17:13:30 GMT 52.79052 3.36590 27,950 286 297 -64
2018-01-16 17:13:26 GMT 52.78880 3.38528 27,975 286 279 1600
2018-01-16 17:13:21 GMT 52.78530 3.39627 28,000 286 288 64
2018-01-16 17:13:08 GMT 52.78251 3.41251 28,000 286 285 192
2018-01-16 17:12:58 GMT 52.77958 3.43150 28,000 286 285 320
2018-01-16 17:12:53 GMT 52.77362 3.46517 28,125 286 284 1024
2018-01-16 17:12:39 GMT 52.77162 3.47772 28,000 286 285 1280
2018-01-16 17:12:32 GMT 52.76738 3.50323 28,000 286 284 1344
2018-01-16 17:12:27 GMT 52.76738 3.50323 28,000 286 284 1344
2018-01-16 17:12:21 GMT 52.76459 3.52159 27,650 286 280 1472
2018-01-16 17:12:11 GMT 52.76212 3.53626 27,500 286 279 1536
2018-01-16 17:12:01 GMT 52.75812 3.56028 27,225 286 280 1536
2018-01-16 17:11:55 GMT 52.75812 3.56028 27,225 286 280 1536
2018-01-16 17:11:48 GMT 52.75472 3.58123 27,300 286 279 1600
2018-01-16 17:11:46 GMT 52.75290 3.59127 27,100 286 280 1600
2018-01-16 17:11:35 GMT 52.74899 3.61199 27,000 286 279 1664
2018-01-16 17:11:27 GMT 52.74718 3.62227 26,700 286 279 1600
2018-01-16 17:11:15 GMT 52.74308 3.64652 26,425 286 280 1408
2018-01-16 17:11:06 GMT 52.74038 3.66276 25,850 286 280 1280
2018-01-16 17:10:53 GMT 52.73489 3.69360 25,825 286 275 1344
2018-01-16 17:10:47 GMT 52.73112 3.71338 25,400 286 275 1536
2018-01-16 17:10:36 GMT 52.72711 3.73323 25,425 285 275 1792
2018-01-16 17:10:14 GMT 52.74252 3.74610 24,950 285 276 2112
2018-01-16 17:10:00 GMT 52.71510 3.81076 24,675 285 275 1856
2018-01-16 17:09:53 GMT 52.71350 3.82088 24,375 285 275 1792
2018-01-16 17:09:45 GMT 52.71180 3.83384 24,050 286 273 1856
2018-01-16 17:09:42 GMT 52.70444 3.86931 23,925 285 274 1856
2018-01-16 17:09:18 GMT 52.70239 3.88979 23,250 285 274 1856
2018-01-16 17:09:08 GMT 52.69862 3.91404 22,925 286 274 1856
2018-01-16 17:08:49 GMT 52.69462 3.94040 22,275 286 274 1856
2018-01-16 17:08:37 GMT 52.69071 3.96449 21,950 286 273 1856
2018-01-16 17:08:24 GMT 52.68289 4.01166 21,650 342 240 0
2018-01-16 17:08:18 GMT 52.67442 4.04509 21,325 342 240 0
2018-01-16 17:07:58 GMT 52.67265 4.06376 20,700 342 240 0
2018-01-16 17:07:37 GMT 52.65929 4.12505 18,900 342 240 0
2018-01-16 17:07:22 GMT 52.65593 4.13494 18,475 342 240 0
2018-01-16 17:07:13 GMT 52.65193 4.14930 19,175 342 240 0
2018-01-16 17:07:01 GMT 52.64290 4.18163 17,900 342 240 0
2018-01-16 17:06:54 GMT 52.63666 4.20109 17,475 342 240 0
2018-01-16 17:06:40 GMT 52.63387 4.21216 16,925 342 240 0
2018-01-16 17:06:31 GMT 52.63191 4.22048 16,800 342 240 0
2018-01-16 17:06:26 GMT 52.62600 4.24057 16,375 342 240 0
2018-01-16 17:06:11 GMT 52.62046 4.26199 15,850 342 240 0
2018-01-16 17:06:05 GMT 52.61548 4.27831 16,625 342 240 0
2018-01-16 17:05:50 GMT 52.60389 4.31370 16,200 342 240 0
2018-01-16 17:05:35 GMT 52.59923 4.33144 15,800 342 240 0
2018-01-16 17:05:24 GMT 52.59681 4.34266 15,425 342 240 0
2018-01-16 17:05:12 GMT 52.58517 4.37970 14,650 342 240 0
2018-01-16 17:05:01 GMT 52.58252 4.39022 14,275 342 240 0
2018-01-16 17:04:47 GMT 52.57489 4.41572 13,800 342 240 0
2018-01-16 17:04:35 GMT 52.56711 4.43997 13,425 342 240 0
2018-01-16 17:04:30 GMT 52.56115 4.45951 13,000 342 240 0
2018-01-16 17:04:16 GMT 52.55291 4.47246 12,575 342 240 0
2018-01-16 17:04:00 GMT 52.53439 4.47709 11,800 342 240 0
2018-01-16 17:03:49 GMT 52.51628 4.49411 11,375 342 240 0
2018-01-16 17:03:35 GMT 52.51623 4.49725 10,950 342 240 0
2018-01-16 17:03:29 GMT 52.49635 4.50455 10,475 342 240 0
2018-01-16 17:03:18 GMT 52.48602 4.50102 9,975 342 240 0
2018-01-16 17:03:03 GMT 52.47177 4.51993 9,450 342 240 0
2018-01-16 17:02:45 GMT 52.45986 4.52809 8,375 342 240 0
2018-01-16 17:02:30 GMT 52.44491 4.53382 7,850 342 240 0
2018-01-16 17:02:10 GMT 52.43602 4.53947 6,725 342 240 0
2018-01-16 17:02:08 GMT 52.41754 4.54936 6,200 342 240 0
2018-01-16 17:01:53 GMT 52.41712 4.55022 6,000 342 240 -64
2018-01-16 17:01:35 GMT 52.40032 4.55878 6,000 341 255 128
2018-01-16 17:01:10 GMT 52.37629 4.57227 6,000 342 260 768
2018-01-16 17:01:01 GMT 52.36191 4.58161 6,000 343 265 960
2018-01-16 17:00:53 GMT 52.35511 4.58483 6,000 343 267 960
2018-01-16 17:00:36 GMT 52.33519 4.59707 5,900 343 246 896
2018-01-16 17:00:32 GMT 52.32481 4.60209 5,750 343 242 832
2018-01-16 17:00:19 GMT 52.30712 4.60782 5,575 337 206 896
2018-01-16 17:00:12 GMT 52.29148 4.61269 5,400 325 162 1088
2018-01-16 17:00:02 GMT 52.28231 4.61661 5,250 315 137 1216
2018-01-16 16:59:45 GMT 52.26392 4.62658 5,050 278 136 1408
2018-01-16 16:59:38 GMT 52.25889 4.63129 4,900 261 163 1536
2018-01-16 16:59:25 GMT 52.25810 4.63929 4,700 254 171 1536
2018-01-16 16:59:20 GMT 52.25759 4.65428 4,200 243 167 1664

Making use of Plane Finder data

You are free to use the raw flight data, aircraft information and images provided in this report for your own purposes provided the data is correctly attributed to Plane Finder. We ask that you please credit Plane Finder and link to planefinder.net in close proximity to the content.

Optionally one of the following logos (no smaller then 150x24px) can be used and must link to planefinder.net

Embedding the Plane Finder map

You are welcome to embed the Plane Finder playback map on your website to offer visitors a more interactive experience. We suggest using the following HTML code:

<iframe src="//planefinder.net/data/report/BE4416-G-FBJH-7700-squawk-2018-01-16/map" width="800" height="600" seamless="seamless"></iframe>

Where our data comes from

Plane Finder has a global network of data feeds and antenna radars that receive data broadcast directly from aircraft. The primary technologies used are ADS-B and MLAT. We also show feeds from the FAA and a FLARM glider feed.

Click here to find out more about the Plane Finder network.

How we collect our data